createdAt,value
2023-06-14T00:01:50.968Z,15.85
2023-06-14T00:04:19.429Z,15.80
2023-06-14T00:06:46.680Z,15.75
2023-06-14T00:09:14.416Z,15.75
2023-06-14T00:11:42.797Z,15.70
2023-06-14T00:14:10.107Z,15.65
2023-06-14T00:16:38.350Z,15.64
2023-06-14T00:19:06.380Z,15.61
2023-06-14T00:21:33.806Z,15.54
2023-06-14T00:24:01.228Z,15.55
2023-06-14T00:26:28.463Z,15.50
2023-06-14T00:28:56.209Z,15.49
2023-06-14T00:31:24.161Z,15.47
2023-06-14T00:33:51.413Z,15.26
2023-06-14T00:36:18.787Z,15.02
2023-06-14T00:38:46.035Z,14.86
2023-06-14T00:41:13.250Z,14.86
2023-06-14T00:43:43.393Z,14.96
2023-06-14T00:46:10.718Z,14.84
2023-06-14T00:48:40.247Z,14.78
2023-06-14T00:51:07.888Z,14.73
2023-06-14T00:53:37.120Z,14.87
2023-06-14T00:56:05.038Z,14.94
2023-06-14T00:58:33.520Z,15.00
2023-06-14T01:01:00.904Z,15.15
2023-06-14T01:03:29.677Z,15.01
2023-06-14T01:06:28.103Z,15.11
2023-06-14T01:09:42.121Z,15.18
2023-06-14T01:12:18.522Z,15.18
2023-06-14T01:14:47.197Z,15.11
2023-06-14T01:17:17.965Z,15.09
2023-06-14T01:19:46.937Z,15.04
2023-06-14T01:22:16.099Z,15.11
2023-06-14T01:24:46.258Z,14.98
2023-06-14T01:27:14.642Z,14.91
2023-06-14T01:29:47.166Z,14.85
2023-06-14T01:32:17.288Z,14.75
2023-06-14T01:34:44.623Z,14.76
2023-06-14T01:37:14.386Z,14.91
2023-06-14T01:39:43.966Z,15.05
2023-06-14T01:42:13.096Z,15.04
2023-06-14T01:44:44.403Z,14.96
2023-06-14T01:47:13.237Z,14.88
2023-06-14T01:49:41.223Z,14.93
2023-06-14T01:52:11.297Z,15.05
2023-06-14T01:54:43.390Z,14.88
2023-06-14T01:57:11.811Z,15.05
2023-06-14T01:59:39.247Z,15.10
2023-06-14T02:02:06.451Z,15.32
2023-06-14T02:04:33.836Z,15.36
2023-06-14T02:07:01.212Z,15.20
2023-06-14T02:09:28.467Z,15.36
2023-06-14T02:11:56.004Z,15.44
2023-06-14T02:14:24.519Z,15.51
2023-06-14T02:16:51.881Z,15.64
2023-06-14T02:19:21.736Z,15.74
2023-06-14T02:21:49.687Z,15.80
2023-06-14T02:24:17.991Z,15.99
2023-06-14T02:26:45.344Z,16.57
2023-06-14T02:29:17.360Z,16.67
2023-06-14T02:31:44.569Z,16.67
2023-06-14T02:34:13.205Z,16.94
2023-06-14T02:36:42.943Z,17.30
2023-06-14T02:39:12.050Z,17.74
2023-06-14T02:41:39.667Z,18.72
2023-06-14T02:44:08.260Z,19.23
2023-06-14T02:46:35.827Z,18.64
2023-06-14T02:49:03.544Z,17.96
2023-06-14T02:51:32.279Z,17.41
2023-06-14T02:53:59.464Z,17.32
2023-06-14T02:56:27.464Z,17.07
2023-06-14T02:58:55.096Z,16.85
2023-06-14T03:01:23.048Z,16.88
2023-06-14T03:03:51.047Z,17.01
2023-06-14T03:06:18.494Z,17.19
2023-06-14T03:08:50.129Z,17.29
2023-06-14T03:11:21.934Z,17.41
2023-06-14T03:13:49.966Z,18.38
2023-06-14T03:16:19.775Z,19.20
2023-06-14T03:18:47.258Z,18.45
2023-06-14T03:21:17.143Z,18.01
2023-06-14T03:23:46.095Z,17.93
2023-06-14T03:26:19.157Z,18.05
2023-06-14T03:28:50.866Z,18.04
2023-06-14T03:31:20.569Z,17.85
2023-06-14T03:33:49.208Z,18.00
2023-06-14T03:36:16.519Z,18.06
2023-06-14T03:38:44.379Z,17.65
2023-06-14T03:41:13.226Z,17.52
2023-06-14T03:43:40.910Z,17.44
2023-06-14T03:46:08.688Z,17.37
2023-06-14T03:48:36.603Z,17.57
2023-06-14T03:51:04.120Z,17.75
2023-06-14T03:53:32.034Z,17.82
2023-06-14T03:56:01.359Z,17.76
2023-06-14T03:58:37.629Z,17.89
2023-06-14T04:01:05.453Z,18.15
2023-06-14T04:03:33.057Z,18.06
2023-06-14T04:06:02.239Z,17.97
2023-06-14T04:08:29.642Z,18.04
2023-06-14T04:10:59.072Z,17.99
2023-06-14T04:13:26.236Z,18.00
2023-06-14T04:15:53.918Z,18.07
2023-06-14T04:18:27.053Z,18.30
2023-06-14T04:20:54.836Z,18.13
2023-06-14T04:23:23.400Z,17.99
2023-06-14T04:25:51.099Z,18.04
2023-06-14T04:28:19.653Z,18.14
2023-06-14T04:30:49.823Z,18.24
2023-06-14T04:33:19.498Z,18.64
2023-06-14T04:35:48.931Z,18.49
2023-06-14T04:38:19.956Z,18.32
2023-06-14T04:40:47.771Z,18.47
2023-06-14T04:43:19.798Z,18.58
2023-06-14T04:45:50.211Z,18.43
2023-06-14T04:48:20.779Z,18.57
2023-06-14T04:50:54.170Z,18.62
2023-06-14T04:53:24.195Z,18.72
2023-06-14T04:55:54.652Z,18.99
2023-06-14T04:58:22.724Z,19.12
2023-06-14T05:00:50.348Z,19.55
2023-06-14T05:03:19.993Z,19.66
2023-06-14T05:05:47.975Z,19.07
2023-06-14T05:08:15.192Z,19.19
2023-06-14T05:10:42.432Z,19.32
2023-06-14T05:13:09.570Z,19.34
2023-06-14T05:15:37.256Z,19.52
2023-06-14T05:18:04.559Z,19.31
2023-06-14T05:20:32.173Z,19.56
2023-06-14T05:22:59.581Z,19.84
2023-06-14T05:25:26.925Z,20.00
2023-06-14T05:27:54.126Z,20.08
2023-06-14T05:30:21.449Z,20.09
2023-06-14T05:32:48.739Z,20.35
2023-06-14T05:35:16.587Z,20.22
2023-06-14T05:37:43.926Z,20.25
2023-06-14T05:40:11.573Z,20.28
2023-06-14T05:42:38.773Z,20.35
2023-06-14T05:45:07.373Z,20.33
2023-06-14T05:47:34.745Z,20.38
2023-06-14T05:50:02.017Z,20.63
2023-06-14T05:52:32.701Z,20.86
2023-06-14T05:54:59.956Z,21.03
2023-06-14T05:57:27.151Z,21.18
2023-06-14T05:59:54.297Z,21.31
2023-06-14T06:02:21.569Z,20.92
2023-06-14T06:04:48.794Z,20.98
2023-06-14T06:07:16.074Z,21.10
2023-06-14T06:09:43.384Z,20.84
2023-06-14T06:12:11.535Z,20.97
2023-06-14T06:14:38.834Z,21.11
2023-06-14T06:17:06.409Z,21.35
2023-06-14T06:19:33.734Z,21.10
2023-06-14T06:22:00.891Z,21.15
2023-06-14T06:24:28.174Z,21.38
2023-06-14T06:26:55.361Z,21.45
2023-06-14T06:29:22.743Z,21.42
2023-06-14T06:31:49.981Z,21.27
2023-06-14T06:34:18.182Z,21.60
2023-06-14T06:36:46.252Z,21.52
2023-06-14T06:39:13.748Z,21.15
2023-06-14T06:41:41.130Z,21.54
2023-06-14T06:44:08.857Z,21.52
2023-06-14T06:46:36.293Z,21.72
2023-06-14T06:49:03.545Z,21.65
2023-06-14T06:51:30.736Z,21.84
2023-06-14T06:53:57.910Z,22.08
2023-06-14T06:56:25.662Z,21.72
2023-06-14T06:58:52.928Z,22.10
2023-06-14T07:01:21.087Z,21.37
2023-06-14T07:03:48.864Z,21.84
2023-06-14T07:06:19.820Z,21.32
2023-06-14T07:08:49.529Z,21.36
2023-06-14T07:11:16.801Z,21.15
2023-06-14T07:13:43.923Z,21.48
2023-06-14T07:16:11.305Z,21.84
2023-06-14T07:18:38.781Z,21.75
2023-06-14T07:21:06.043Z,21.91
2023-06-14T07:23:33.213Z,21.73
2023-06-14T07:26:00.447Z,21.92
2023-06-14T07:28:27.684Z,21.77
2023-06-14T07:30:54.937Z,21.82
2023-06-14T07:33:22.279Z,21.62
2023-06-14T07:35:50.525Z,22.01
2023-06-14T07:38:17.708Z,21.56
2023-06-14T07:40:44.942Z,21.50
2023-06-14T07:43:12.216Z,21.96
2023-06-14T07:45:40.159Z,22.29
2023-06-14T07:48:11.152Z,22.58
2023-06-14T07:50:38.528Z,22.21
2023-06-14T07:53:05.835Z,22.03
2023-06-14T07:55:45.574Z,22.07
2023-06-14T07:58:20.064Z,22.28
2023-06-14T08:00:48.460Z,22.17
2023-06-14T08:03:15.834Z,22.08
2023-06-14T08:05:43.669Z,21.94
2023-06-14T08:08:10.929Z,22.13
2023-06-14T08:10:38.234Z,22.16
2023-06-14T08:13:05.485Z,22.43
2023-06-14T08:15:32.950Z,22.16
2023-06-14T08:18:01.763Z,22.17
2023-06-14T08:20:29.323Z,22.11
2023-06-14T08:22:58.125Z,22.64
2023-06-14T08:25:25.815Z,22.56
2023-06-14T08:27:53.055Z,22.75
2023-06-14T08:30:20.428Z,22.91
2023-06-14T08:32:51.528Z,22.94
2023-06-14T08:35:21.191Z,22.89
2023-06-14T08:37:48.465Z,23.15
2023-06-14T08:40:23.487Z,23.00
2023-06-14T08:42:55.370Z,23.09
2023-06-14T08:45:26.289Z,23.16
2023-06-14T08:47:59.665Z,23.07
2023-06-14T08:50:32.055Z,22.73
2023-06-14T08:53:03.900Z,23.12
2023-06-14T08:55:37.128Z,23.31
2023-06-14T08:58:06.394Z,22.97
2023-06-14T09:00:34.790Z,22.91
2023-06-14T09:03:02.521Z,23.17
2023-06-14T09:05:30.251Z,23.36
2023-06-14T09:08:04.092Z,22.87
2023-06-14T09:10:39.028Z,22.53
2023-06-14T09:13:07.795Z,22.78
2023-06-14T09:15:36.528Z,22.91
2023-06-14T09:18:05.559Z,22.74
2023-06-14T09:20:33.512Z,22.84
2023-06-14T09:23:02.150Z,22.43
2023-06-14T09:27:59.625Z,22.77
2023-06-14T09:30:26.867Z,22.93
2023-06-14T09:32:54.462Z,22.80
2023-06-14T09:35:21.945Z,22.96
2023-06-14T09:37:49.137Z,22.95
2023-06-14T09:40:22.058Z,23.16
2023-06-14T09:42:49.816Z,22.94
2023-06-14T09:45:22.845Z,23.31
2023-06-14T09:48:05.420Z,23.55
2023-06-14T09:50:34.260Z,23.60
2023-06-14T09:53:08.539Z,23.61
2023-06-14T09:55:38.453Z,23.80
2023-06-14T09:58:09.087Z,23.84
2023-06-14T10:00:38.803Z,23.50
2023-06-14T10:03:21.176Z,23.57
2023-06-14T10:05:51.423Z,23.24
2023-06-14T10:08:26.085Z,23.20
2023-06-14T10:10:54.610Z,23.32
2023-06-14T10:13:22.257Z,22.99
2023-06-14T10:16:14.212Z,23.10
2023-06-14T10:19:21.838Z,23.29
2023-06-14T10:22:15.915Z,23.35
2023-06-14T10:24:44.907Z,23.60
2023-06-14T10:27:18.472Z,23.79
2023-06-14T10:29:54.626Z,23.50
2023-06-14T10:32:22.750Z,23.52
2023-06-14T10:35:01.656Z,23.51
2023-06-14T10:37:31.775Z,23.64
2023-06-14T10:39:59.233Z,23.48
2023-06-14T10:42:33.358Z,23.60
2023-06-14T10:45:01.903Z,23.48
2023-06-14T10:47:40.724Z,23.64
2023-06-14T10:50:09.382Z,23.52
2023-06-14T10:52:40.197Z,23.73
2023-06-14T10:55:20.210Z,23.55
2023-06-14T10:57:59.898Z,23.40
2023-06-14T11:00:30.094Z,23.14
2023-06-14T11:03:15.857Z,23.27
2023-06-14T11:05:59.625Z,23.25
2023-06-14T11:08:57.688Z,23.43
2023-06-14T11:11:30.920Z,23.54
2023-06-14T11:13:58.197Z,23.67
2023-06-14T11:16:28.978Z,23.73
2023-06-14T11:18:56.750Z,23.70
2023-06-14T11:21:26.453Z,23.61
2023-06-14T11:23:54.455Z,23.75
2023-06-14T11:26:32.457Z,23.47
2023-06-14T11:29:01.288Z,23.30
2023-06-14T11:31:30.064Z,23.58
2023-06-14T11:33:59.295Z,23.52
2023-06-14T11:36:33.822Z,23.37
2023-06-14T11:39:09.947Z,23.72
2023-06-14T11:41:42.613Z,23.82
2023-06-14T11:44:10.601Z,23.87
2023-06-14T11:46:37.977Z,23.88
2023-06-14T11:49:08.108Z,23.74
2023-06-14T11:51:36.053Z,23.59
2023-06-14T11:54:04.600Z,23.61
2023-06-14T11:56:35.300Z,23.43
2023-06-14T11:59:05.039Z,23.63
2023-06-14T12:01:33.390Z,23.63
2023-06-14T12:04:02.076Z,23.65
2023-06-14T12:06:34.497Z,23.56
2023-06-14T12:09:06.056Z,23.80
2023-06-14T12:11:35.031Z,24.01
2023-06-14T12:14:04.025Z,23.93
2023-06-14T12:16:37.006Z,23.86
2023-06-14T12:19:16.051Z,23.86
2023-06-14T12:21:45.564Z,23.98
2023-06-14T12:24:14.415Z,24.10
2023-06-14T12:26:42.972Z,24.12
2023-06-14T12:29:11.510Z,24.24
2023-06-14T12:31:39.214Z,24.03
2023-06-14T12:34:06.565Z,23.82
2023-06-14T12:36:33.828Z,24.17
2023-06-14T12:39:01.393Z,24.18
2023-06-14T12:41:29.165Z,24.18
2023-06-14T12:43:56.632Z,24.03
2023-06-14T12:46:23.867Z,24.18
2023-06-14T12:48:51.250Z,24.13
2023-06-14T12:51:18.449Z,24.25
2023-06-14T12:53:45.719Z,24.37
2023-06-14T12:56:12.979Z,24.34
2023-06-14T12:58:40.166Z,24.15
2023-06-14T13:01:07.443Z,24.01
2023-06-14T13:03:37.874Z,24.03
2023-06-14T13:06:05.549Z,24.26
2023-06-14T13:08:32.818Z,24.11
2023-06-14T13:11:00.030Z,24.12
2023-06-14T13:13:27.570Z,24.38
2023-06-14T13:15:54.802Z,24.35
2023-06-14T13:18:22.262Z,24.31
2023-06-14T13:20:49.625Z,24.49
2023-06-14T13:23:17.332Z,24.18
2023-06-14T13:25:45.190Z,24.33
2023-06-14T13:28:12.582Z,24.29
2023-06-14T13:30:39.866Z,24.29
2023-06-14T13:33:07.184Z,24.15
2023-06-14T13:35:34.459Z,24.08
2023-06-14T13:38:02.384Z,24.17
2023-06-14T13:40:29.843Z,24.22
2023-06-14T13:42:57.056Z,24.40
2023-06-14T13:45:24.444Z,24.25
2023-06-14T13:47:51.834Z,24.21
2023-06-14T13:50:19.400Z,24.29
2023-06-14T13:52:46.679Z,24.01
2023-06-14T13:55:13.882Z,24.08
2023-06-14T13:57:41.176Z,24.25
2023-06-14T14:00:09.769Z,24.34
2023-06-14T14:02:44.170Z,24.31
2023-06-14T14:05:11.621Z,24.49
2023-06-14T14:07:39.425Z,24.49
2023-06-14T14:10:11.338Z,24.39
2023-06-14T14:12:42.830Z,24.62
2023-06-14T14:15:14.371Z,24.44
2023-06-14T14:17:42.635Z,24.43
2023-06-14T14:20:10.723Z,24.40
2023-06-14T14:22:39.311Z,24.46
2023-06-14T14:25:06.640Z,24.48
2023-06-14T14:27:33.823Z,24.41
2023-06-14T14:30:01.200Z,24.48
2023-06-14T14:32:29.819Z,24.65
2023-06-14T14:34:57.046Z,24.67
2023-06-14T14:37:24.222Z,24.57
2023-06-14T14:39:51.360Z,24.66
2023-06-14T14:42:19.742Z,24.71
2023-06-14T14:44:47.099Z,24.44
2023-06-14T14:47:14.442Z,24.29
2023-06-14T14:49:43.044Z,24.45
2023-06-14T14:52:22.943Z,24.48
2023-06-14T14:54:52.021Z,24.50
2023-06-14T14:57:19.226Z,24.40
2023-06-14T14:59:46.758Z,24.35
2023-06-14T15:02:13.983Z,24.66
2023-06-14T15:04:41.496Z,24.80
2023-06-14T15:07:09.269Z,24.86
2023-06-14T15:09:36.618Z,24.41
2023-06-14T15:12:04.047Z,24.35
2023-06-14T15:14:31.444Z,24.40
2023-06-14T15:16:59.845Z,24.33
2023-06-14T15:19:27.243Z,24.47
2023-06-14T15:21:54.604Z,24.24
2023-06-14T15:24:34.013Z,24.69
2023-06-14T15:27:08.976Z,25.28
2023-06-14T15:29:36.475Z,26.32
2023-06-14T15:32:03.853Z,27.03
2023-06-14T15:34:31.058Z,28.24
2023-06-14T15:36:58.449Z,27.49
2023-06-14T15:39:26.213Z,27.42
2023-06-14T15:41:53.589Z,27.68
2023-06-14T15:44:21.047Z,27.72
2023-06-14T15:46:49.493Z,28.02
2023-06-14T15:49:19.291Z,28.02
2023-06-14T15:51:47.208Z,27.59
2023-06-14T15:54:14.825Z,27.53
2023-06-14T15:56:42.062Z,28.42
2023-06-14T15:59:09.266Z,29.23
2023-06-14T16:01:37.672Z,28.94
2023-06-14T16:04:06.002Z,28.30
2023-06-14T16:06:37.272Z,28.26
2023-06-14T16:09:05.448Z,28.17
2023-06-14T16:11:32.671Z,27.84
2023-06-14T16:13:59.915Z,28.46
2023-06-14T16:16:27.308Z,29.37
2023-06-14T16:18:55.583Z,29.40
2023-06-14T16:21:22.905Z,29.12
2023-06-14T16:23:50.297Z,28.89
2023-06-14T16:26:17.572Z,27.56
2023-06-14T16:28:45.177Z,27.42
2023-06-14T16:31:15.935Z,26.21
2023-06-14T16:33:43.141Z,25.36
2023-06-14T16:38:37.449Z,24.85
2023-06-14T16:41:04.790Z,24.84
2023-06-14T16:43:32.093Z,25.09
2023-06-14T16:45:59.290Z,25.41
2023-06-14T16:48:26.482Z,25.72
2023-06-14T16:50:53.759Z,24.72
2023-06-14T16:53:39.717Z,24.41
2023-06-14T16:56:07.524Z,24.26
2023-06-14T16:58:34.712Z,23.98
2023-06-14T17:01:01.951Z,24.01
2023-06-14T17:03:29.249Z,23.88
2023-06-14T17:05:58.115Z,23.90
2023-06-14T17:08:26.395Z,23.95
2023-06-14T17:10:54.955Z,23.91
2023-06-14T17:13:22.711Z,23.71
2023-06-14T17:15:50.038Z,23.61
2023-06-14T17:18:17.603Z,23.68
2023-06-14T17:20:45.007Z,23.56
2023-06-14T17:23:12.213Z,23.48
2023-06-14T17:25:39.379Z,23.37
2023-06-14T17:28:06.523Z,23.31
2023-06-14T17:30:33.710Z,23.22
2023-06-14T17:33:01.137Z,23.26
2023-06-14T17:35:28.471Z,23.26
2023-06-14T17:37:55.723Z,23.18
2023-06-14T17:40:22.966Z,23.16
2023-06-14T17:42:50.160Z,23.28
2023-06-14T17:45:17.403Z,23.29
2023-06-14T17:47:44.629Z,23.20
2023-06-14T17:50:11.878Z,22.95
2023-06-14T17:52:39.212Z,22.83
2023-06-14T17:55:07.067Z,22.68
2023-06-14T17:57:34.283Z,22.83
2023-06-14T18:00:01.544Z,22.81
2023-06-14T18:02:33.497Z,22.91
2023-06-14T18:05:01.016Z,22.86
2023-06-14T18:07:29.318Z,22.74
2023-06-14T18:09:56.503Z,22.61
2023-06-14T18:12:23.710Z,22.60
2023-06-14T18:14:50.981Z,22.52
2023-06-14T18:17:18.320Z,22.49
2023-06-14T18:19:45.693Z,22.50
2023-06-14T18:22:13.022Z,22.39
2023-06-14T18:24:40.283Z,22.29
2023-06-14T18:27:10.143Z,22.26
2023-06-14T18:29:37.363Z,22.18
2023-06-14T18:32:05.034Z,22.03
2023-06-14T18:34:32.311Z,21.92
2023-06-14T18:36:59.494Z,21.87
2023-06-14T18:39:26.788Z,21.64
2023-06-14T18:41:54.196Z,21.76
2023-06-14T18:44:21.429Z,21.75
2023-06-14T18:46:48.692Z,21.65
2023-06-14T18:49:16.035Z,21.65
2023-06-14T18:51:43.780Z,21.68
2023-06-14T18:54:11.553Z,21.70
2023-06-14T18:56:39.094Z,21.68
2023-06-14T18:59:06.297Z,21.58
2023-06-14T19:01:33.622Z,21.58
2023-06-14T19:04:01.044Z,21.51
2023-06-14T19:06:28.457Z,21.51
2023-06-14T19:08:55.911Z,21.44
2023-06-14T19:11:23.138Z,21.32
2023-06-14T19:13:50.544Z,21.43
2023-06-14T19:16:17.705Z,21.37
2023-06-14T19:18:45.069Z,21.36
2023-06-14T19:21:12.378Z,21.36
2023-06-14T19:23:39.731Z,21.37
2023-06-14T19:26:07.882Z,21.32
2023-06-14T19:28:36.588Z,21.10
2023-06-14T19:31:03.740Z,21.15
2023-06-14T19:33:30.932Z,21.20
2023-06-14T19:35:58.099Z,21.08
2023-06-14T19:38:25.477Z,21.12
2023-06-14T19:40:52.758Z,21.16
2023-06-14T19:43:19.968Z,21.13
2023-06-14T19:45:47.381Z,21.08
2023-06-14T19:48:20.674Z,21.08
2023-06-14T19:50:51.475Z,20.98
2023-06-14T19:53:19.379Z,21.10
2023-06-14T19:55:46.607Z,21.02
2023-06-14T19:58:13.854Z,21.02
2023-06-14T20:00:41.174Z,21.08
2023-06-14T20:03:08.514Z,21.02
2023-06-14T20:05:36.570Z,20.86
2023-06-14T20:08:04.308Z,21.02
2023-06-14T20:10:31.684Z,20.96
2023-06-14T20:12:59.006Z,20.86
2023-06-14T20:15:27.246Z,20.82
2023-06-14T20:17:54.419Z,20.76
2023-06-14T20:20:21.602Z,20.65
2023-06-14T20:22:48.753Z,20.62
2023-06-14T20:25:16.379Z,20.59
2023-06-14T20:27:43.867Z,20.47
2023-06-14T20:30:11.692Z,20.34
2023-06-14T20:32:38.980Z,20.33
2023-06-14T20:35:06.573Z,20.33
2023-06-14T20:37:33.824Z,20.36
2023-06-14T20:40:06.997Z,20.22
2023-06-14T20:42:34.805Z,20.29
2023-06-14T20:45:03.778Z,20.15
2023-06-14T20:47:34.520Z,20.13
2023-06-14T20:50:01.837Z,20.07
2023-06-14T20:52:30.943Z,20.13
2023-06-14T20:54:59.035Z,20.09
2023-06-14T20:57:26.746Z,20.03
2023-06-14T20:59:53.974Z,20.01
2023-06-14T21:02:21.420Z,20.01
2023-06-14T21:04:48.773Z,19.98
2023-06-14T21:07:16.398Z,19.96
2023-06-14T21:09:43.894Z,19.93
2023-06-14T21:12:13.058Z,19.88
2023-06-14T21:14:40.941Z,19.88
2023-06-14T21:17:09.863Z,19.84
2023-06-14T21:19:38.743Z,19.71
2023-06-14T21:22:06.450Z,19.80
2023-06-14T21:24:33.849Z,19.78
2023-06-14T21:27:01.332Z,19.70
2023-06-14T21:29:28.995Z,19.68
2023-06-14T21:31:56.893Z,19.51
2023-06-14T21:34:24.312Z,19.43
2023-06-14T21:36:53.698Z,19.44
2023-06-14T21:39:24.789Z,19.49
2023-06-14T21:41:53.467Z,19.54
2023-06-14T21:44:20.637Z,19.48
2023-06-14T21:46:47.874Z,19.44
2023-06-14T21:49:15.062Z,19.40
2023-06-14T21:51:42.430Z,19.35
2023-06-14T21:54:11.119Z,19.30
2023-06-14T21:56:38.527Z,19.24
2023-06-14T21:59:05.687Z,19.14
2023-06-14T22:01:32.865Z,19.15
2023-06-14T22:04:00.152Z,19.12
2023-06-14T22:06:27.426Z,18.95
2023-06-14T22:08:55.013Z,18.76
2023-06-14T22:11:22.332Z,18.79
2023-06-14T22:13:50.565Z,19.05
2023-06-14T22:16:17.810Z,19.18
2023-06-14T22:18:47.057Z,19.13
2023-06-14T22:21:20.636Z,18.79
2023-06-14T22:23:48.086Z,18.84
2023-06-14T22:26:20.591Z,18.82
2023-06-14T22:28:54.468Z,18.92
2023-06-14T22:31:21.810Z,19.00
2023-06-14T22:33:52.336Z,18.94
2023-06-14T22:36:19.582Z,18.95
2023-06-14T22:38:47.067Z,18.97
2023-06-14T22:41:14.804Z,18.78
2023-06-14T22:43:44.475Z,18.76
2023-06-14T22:46:20.842Z,18.71
2023-06-14T22:48:51.978Z,18.66
2023-06-14T22:51:21.345Z,18.61
2023-06-14T22:53:52.638Z,18.55
2023-06-14T22:56:21.687Z,18.38
2023-06-14T22:58:49.602Z,18.42
2023-06-14T23:01:19.117Z,18.45
2023-06-14T23:03:49.184Z,18.47
2023-06-14T23:06:26.144Z,18.38
2023-06-14T23:08:57.637Z,18.39
2023-06-14T23:11:25.153Z,18.44
2023-06-14T23:13:54.568Z,18.36
2023-06-14T23:16:22.331Z,18.26
2023-06-14T23:18:49.860Z,18.28
2023-06-14T23:21:18.374Z,18.24
2023-06-14T23:23:51.302Z,18.26
2023-06-14T23:26:22.118Z,18.16
2023-06-14T23:28:54.926Z,18.16
2023-06-14T23:31:24.063Z,18.01
2023-06-14T23:33:53.936Z,18.00
2023-06-14T23:36:21.739Z,17.97
2023-06-14T23:38:49.689Z,18.03
2023-06-14T23:41:17.593Z,17.97
2023-06-14T23:43:46.486Z,18.04
2023-06-14T23:46:16.887Z,18.00
2023-06-14T23:48:44.679Z,18.00
2023-06-14T23:51:11.873Z,17.83
2023-06-14T23:53:39.122Z,17.71
2023-06-14T23:56:10.767Z,17.72
2023-06-14T23:58:38.886Z,17.63
